Time;durP1;ratioP1;P1;durP2;ratioP2;P2;SDS_P1;SDS_P2;PMS_P1;PMS_P2;Temp;Humidity;BMP_temperature;BMP_pressure;BME280_temperature;BME280_humidity;BME280_pressure;Samples;Min_cycle;Max_cycle;Signal;HPM_P1;HPM_P2
2023/06/04 00:00:19;;;;;;;2.80;2.10;;;;;;;17.34;36.48;100860.86;107946;1254;70006;-67
2023/06/04 00:02:46;;;;;;;3.90;1.70;;;;;;;17.36;36.45;100859.15;107744;1254;71383;-67
2023/06/04 00:05:14;;;;;;;5.70;2.10;;;;;;;17.49;36.32;100859.88;107938;1255;60330;-67
2023/06/04 00:07:41;;;;;;;4.90;1.90;;;;;;;17.51;36.26;100859.96;107987;1254;60217;-66
2023/06/04 00:10:09;;;;;;;6.30;1.80;;;;;;;17.46;36.41;100860.58;107934;1254;72283;-67
2023/06/04 00:12:37;;;;;;;4.60;2.10;;;;;;;17.58;36.17;100860.77;107991;1254;68998;-67
2023/06/04 00:15:05;;;;;;;6.90;2.20;;;;;;;17.63;35.95;100860.90;107974;1255;72686;-67
2023/06/04 00:17:32;;;;;;;3.90;1.90;;;;;;;17.22;36.55;100868.39;107950;1254;60908;-66
2023/06/04 00:20:00;;;;;;;2.60;2.00;;;;;;;17.06;36.83;100870.66;107958;1254;60143;-67
2023/06/04 00:22:27;;;;;;;3.10;1.80;;;;;;;16.86;37.25;100871.19;108004;1254;72003;-67
2023/06/04 00:24:55;;;;;;;4.10;1.90;;;;;;;16.71;37.44;100869.41;108030;1254;69961;-66
2023/06/04 00:27:22;;;;;;;3.40;1.90;;;;;;;16.60;37.69;100868.92;108010;1254;71423;-66
2023/06/04 00:29:49;;;;;;;2.80;2.00;;;;;;;16.63;37.60;100866.30;107952;1257;60932;-67
2023/06/04 00:32:16;;;;;;;4.10;2.00;;;;;;;16.61;37.61;100868.66;107939;1254;60293;-67
2023/06/04 00:34:53;;;;;;;7.40;2.50;;;;;;;16.59;37.53;100868.44;107994;1253;73888;-67
2023/06/04 00:37:22;;;;;;;3.70;2.50;;;;;;;16.60;37.69;100868.20;107964;1254;70451;-66
2023/06/04 00:39:50;;;;;;;3.40;1.90;;;;;;;16.89;37.21;100870.10;107926;1254;72658;-66
2023/06/04 00:42:17;;;;;;;3.20;1.90;;;;;;;16.65;37.45;100873.60;107892;1257;60315;-66
2023/06/04 00:44:45;;;;;;;4.30;2.20;;;;;;;16.44;37.90;100873.08;107992;1254;60227;-66
2023/06/04 00:47:14;;;;;;;3.90;2.00;;;;;;;16.49;37.84;100872.80;108044;1254;72989;-66
2023/06/04 00:49:41;;;;;;;5.00;2.30;;;;;;;16.64;37.62;100873.47;108028;1254;69989;-66
2023/06/04 00:52:09;;;;;;;2.60;2.20;;;;;;;16.43;37.82;100868.34;107946;1254;71546;-67
2023/06/04 00:54:40;;;;;;;3.70;2.40;;;;;;;16.32;37.92;100872.44;107995;1259;59728;-66
2023/06/04 00:57:08;;;;;;;5.50;2.40;;;;;;;16.37;37.95;100876.06;107775;1254;60344;-67
2023/06/04 00:59:37;;;;;;;4.90;2.60;;;;;;;16.03;38.44;100881.27;107925;1254;72565;-67
2023/06/04 01:02:16;;;;;;;3.70;2.40;;;;;;;15.75;38.95;100880.61;108005;1254;70577;-66
2023/06/04 01:04:56;;;;;;;7.80;2.60;;;;;;;15.67;39.01;100878.69;107937;1255;72630;-68
2023/06/04 01:07:23;;;;;;;3.70;2.30;;;;;;;16.63;37.50;100884.50;107936;1254;60463;-68
2023/06/04 01:09:51;;;;;;;11.50;2.30;;;;;;;16.55;37.63;100882.43;107912;1254;60223;-67
2023/06/04 01:12:18;;;;;;;9.50;2.20;;;;;;;16.43;37.74;100880.74;107905;1259;73761;-66
2023/06/04 01:14:45;;;;;;;7.70;2.20;;;;;;;16.34;37.59;100882.78;107771;1254;70297;-66
2023/06/04 01:17:36;;;;;;;3.80;2.10;;;;;;;16.28;37.63;100885.35;107896;1254;72702;-66
2023/06/04 01:20:08;;;;;;;5.10;2.10;;;;;;;16.51;37.26;100883.01;107908;1254;61164;-67
2023/06/04 01:22:48;;;;;;;6.10;2.90;;;;;;;16.57;37.15;100884.68;107993;1254;60309;-67
2023/06/04 01:25:23;;;;;;;7.50;2.20;;;;;;;16.71;36.96;100888.05;108004;1254;72628;-66
2023/06/04 01:27:55;;;;;;;5.70;2.40;;;;;;;16.65;37.08;100886.36;108006;1259;68553;-66
2023/06/04 01:30:28;;;;;;;2.50;2.00;;;;;;;16.44;37.49;100884.40;107911;1256;70426;-66
2023/06/04 01:32:55;;;;;;;5.30;1.90;;;;;;;16.27;37.73;100886.11;107722;1255;60424;-65
2023/06/04 01:35:23;;;;;;;4.10;2.30;;;;;;;15.96;38.25;100886.90;107974;1254;60352;-66
2023/06/04 01:37:55;;;;;;;5.70;2.60;;;;;;;15.62;38.71;100888.99;107890;1254;73880;-66
2023/06/04 01:40:23;;;;;;;4.90;2.30;;;;;;;15.48;39.02;100890.49;107927;1253;70641;-67
2023/06/04 01:42:51;;;;;;;5.30;2.70;;;;;;;15.40;38.93;100889.64;107899;1256;72503;-66
2023/06/04 01:45:18;;;;;;;2.90;1.80;;;;;;;15.72;38.40;100891.92;107947;1254;60301;-67
2023/06/04 01:47:45;;;;;;;4.60;2.30;;;;;;;15.98;38.04;100896.01;107943;1254;60306;-65
2023/06/04 01:50:13;;;;;;;3.40;2.00;;;;;;;16.07;37.91;100903.90;107982;1254;73869;-66
2023/06/04 01:52:40;;;;;;;6.10;2.30;;;;;;;16.03;37.90;100906.41;107870;1254;69076;-65
2023/06/04 01:55:11;;;;;;;4.00;2.00;;;;;;;16.09;37.76;100905.40;107721;1254;72496;-66
2023/06/04 01:57:40;;;;;;;4.80;2.00;;;;;;;16.04;37.93;100908.30;108030;1256;60202;-66
2023/06/04 02:00:09;;;;;;;8.20;2.80;;;;;;;16.01;37.88;100907.92;107939;1255;60317;-66
2023/06/04 02:02:43;;;;;;;10.10;4.10;;;;;;;16.08;37.77;100907.39;107993;1253;73930;-66
2023/06/04 02:05:11;;;;;;;5.00;2.40;;;;;;;16.25;37.64;100910.52;108091;1253;69973;-67
2023/06/04 02:07:40;;;;;;;5.50;2.40;;;;;;;16.36;37.40;100914.57;108004;1253;72720;-66
2023/06/04 02:10:08;;;;;;;7.00;2.70;;;;;;;16.40;37.41;100911.20;108031;1253;60420;-66
2023/06/04 02:12:38;;;;;;;4.40;2.50;;;;;;;16.35;37.44;100911.05;108033;1253;60323;-65
2023/06/04 02:15:07;;;;;;;5.60;2.50;;;;;;;16.36;37.39;100911.91;108019;1253;73920;-67
2023/06/04 02:17:37;;;;;;;5.90;2.10;;;;;;;16.37;37.36;100915.05;108079;1253;70180;-67
2023/06/04 02:20:06;;;;;;;5.50;2.40;;;;;;;16.45;37.19;100916.95;107927;1254;71248;-66
2023/06/04 02:22:33;;;;;;;9.30;2.40;;;;;;;16.35;37.37;100915.48;108040;1252;60859;-65
2023/06/04 02:25:01;;;;;;;2.80;1.80;;;;;;;16.41;37.31;100919.66;108010;1253;60328;-66
2023/06/04 02:27:28;;;;;;;3.70;2.40;;;;;;;16.40;37.43;100919.01;107998;1253;73885;-66
2023/06/04 02:29:55;;;;;;;5.10;2.30;;;;;;;16.74;36.98;100916.98;108023;1252;69986;-66
2023/06/04 02:32:23;;;;;;;3.50;2.30;;;;;;;16.79;36.86;100920.25;108032;1254;72672;-66
2023/06/04 02:34:50;;;;;;;3.90;2.20;;;;;;;16.30;37.69;100918.05;108043;1253;61405;-66
2023/06/04 02:37:17;;;;;;;4.80;2.20;;;;;;;16.34;37.80;100917.69;108013;1253;60322;-66
2023/06/04 02:39:45;;;;;;;3.30;2.30;;;;;;;16.35;38.08;100919.61;107975;1253;73826;-65
2023/06/04 02:42:13;;;;;;;4.60;2.20;;;;;;;16.26;38.29;100924.61;108114;1257;69926;-66
2023/06/04 02:44:40;;;;;;;6.30;2.10;;;;;;;16.12;38.72;100917.84;108151;1253;71261;-66
2023/06/04 02:47:08;;;;;;;6.00;2.40;;;;;;;16.17;38.77;100920.46;108051;1253;60329;-66
2023/06/04 02:49:35;;;;;;;4.20;2.00;;;;;;;16.19;38.87;100919.29;108085;1252;60539;-67
2023/06/04 02:52:02;;;;;;;3.40;2.20;;;;;;;16.21;39.00;100919.56;108101;1253;73933;-66
2023/06/04 02:54:30;;;;;;;4.30;2.10;;;;;;;16.30;38.92;100919.32;108052;1253;70440;-66
2023/06/04 02:56:57;;;;;;;5.20;2.70;;;;;;;16.42;38.81;100919.62;107969;1253;71877;-66
2023/06/04 02:59:25;;;;;;;3.40;2.00;;;;;;;16.50;38.80;100919.88;108052;1253;60876;-66
2023/06/04 03:01:53;;;;;;;5.90;1.90;;;;;;;16.71;38.67;100924.02;107947;1254;60201;-65
2023/06/04 03:04:21;;;;;;;5.20;2.60;;;;;;;16.81;38.56;100929.93;107859;1254;72485;-65
2023/06/04 03:06:57;;;;;;;3.30;1.80;;;;;;;17.04;38.32;100932.14;108046;1254;70243;-65
2023/06/04 03:09:24;;;;;;;4.40;1.90;;;;;;;17.41;37.98;100930.19;107962;1254;71797;-66
2023/06/04 03:11:51;;;;;;;5.00;2.00;;;;;;;17.64;37.82;100930.06;107971;1257;59609;-66
2023/06/04 03:14:21;;;;;;;3.40;2.00;;;;;;;17.78;37.52;100929.46;107902;1254;59355;-66
2023/06/04 03:16:48;;;;;;;3.30;2.10;;;;;;;17.97;37.49;100933.65;107955;1254;72514;-67
2023/06/04 03:19:17;;;;;;;6.40;1.70;;;;;;;17.96;37.39;100935.46;108015;1254;70557;-67
2023/06/04 03:21:44;;;;;;;3.50;1.80;;;;;;;18.17;36.98;100939.65;107952;1255;72569;-67
2023/06/04 03:24:12;;;;;;;3.50;2.00;;;;;;;17.92;37.45;100941.70;107757;1254;60667;-66
2023/06/04 03:26:39;;;;;;;3.20;2.00;;;;;;;17.55;38.17;100947.23;107956;1254;60361;-66
2023/06/04 03:29:06;;;;;;;3.80;1.90;;;;;;;17.72;37.96;100948.30;107801;1254;72612;-68
2023/06/04 03:31:34;;;;;;;6.40;2.40;;;;;;;18.45;37.04;100948.70;107993;1254;69140;-66
2023/06/04 03:34:02;;;;;;;3.50;1.90;;;;;;;18.79;36.39;100954.48;108012;1255;70283;-66
2023/06/04 03:36:32;;;;;;;3.90;1.70;;;;;;;19.03;36.15;100950.76;107977;1254;60905;-67
2023/06/04 03:39:01;;;;;;;3.30;2.20;;;;;;;18.82;36.65;100954.82;107995;1254;60428;-66
2023/06/04 03:41:29;;;;;;;7.00;2.60;;;;;;;19.07;36.49;100956.20;108009;1258;72710;-66
2023/06/04 03:43:57;;;;;;;6.40;2.10;;;;;;;19.34;36.36;100953.12;107790;1254;70132;-67
2023/06/04 03:46:26;;;;;;;4.20;2.30;;;;;;;19.64;35.91;100949.89;107946;1255;72741;-66
2023/06/04 03:48:54;;;;;;;4.60;3.00;;;;;;;20.34;35.11;100946.91;107963;1258;61740;-67
2023/06/04 03:51:22;;;;;;;7.00;3.10;;;;;;;20.92;34.25;100948.29;108025;1254;60429;-65
2023/06/04 03:53:51;;;;;;;6.10;2.50;;;;;;;21.44;33.50;100943.66;107809;1256;74906;-66
2023/06/04 03:56:18;;;;;;;4.30;2.90;;;;;;;22.06;32.67;100942.88;107829;1256;70730;-66
2023/06/04 03:58:46;;;;;;;7.00;3.00;;;;;;;22.17;32.41;100942.84;107791;1254;72663;-67
2023/06/04 04:01:14;;;;;;;6.80;2.80;;;;;;;22.24;32.27;100940.66;107906;1260;62302;-66
2023/06/04 04:03:42;;;;;;;3.90;3.00;;;;;;;22.62;31.84;100937.56;107873;1254;60315;-64
2023/06/04 04:06:10;;;;;;;7.60;3.00;;;;;;;23.05;31.33;100938.45;107914;1255;72873;-64
2023/06/04 04:08:42;;;;;;;5.50;2.60;;;;;;;23.26;31.02;100937.35;107891;1256;70540;-66
2023/06/04 04:11:15;;;;;;;6.40;2.60;;;;;;;23.49;30.73;100940.21;107841;1254;70541;-66
2023/06/04 04:13:46;;;;;;;20.20;2.60;;;;;;;23.93;30.48;100942.54;107821;1260;61687;-67
2023/06/04 04:16:14;;;;;;;3.60;1.70;;;;;;;24.27;30.44;100949.45;107869;1255;60290;-66
2023/06/04 04:18:43;;;;;;;9.10;2.20;;;;;;;24.26;30.21;100952.23;107854;1256;74400;-66
2023/06/04 04:21:10;;;;;;;3.40;2.00;;;;;;;24.58;29.34;100959.34;107872;1254;69944;-66
2023/06/04 04:23:42;;;;;;;2.30;1.40;;;;;;;24.71;29.14;100959.50;107880;1256;72657;-67
2023/06/04 04:26:10;;;;;;;3.80;1.70;;;;;;;24.90;29.06;100964.91;107871;1256;60544;-68
2023/06/04 04:28:38;;;;;;;7.60;1.30;;;;;;;25.38;28.54;100966.79;107967;1256;60703;-67
2023/06/04 04:31:06;;;;;;;3.80;1.40;;;;;;;25.73;27.32;100968.41;107908;1255;72162;-68
2023/06/04 04:33:39;;;;;;;4.60;1.40;;;;;;;25.68;26.36;100971.86;107983;1255;70751;-67
2023/06/04 04:36:12;;;;;;;3.50;1.40;;;;;;;25.79;26.52;100971.89;107968;1254;72336;-68
2023/06/04 04:38:44;;;;;;;3.80;1.50;;;;;;;25.76;25.84;100972.79;108014;1256;60523;-67
2023/06/04 04:41:12;;;;;;;4.00;1.40;;;;;;;26.01;25.53;100974.40;107926;1256;60297;-67
2023/06/04 04:43:41;;;;;;;3.30;1.50;;;;;;;26.00;25.03;100974.58;107923;1255;71813;-68
2023/06/04 04:46:18;;;;;;;4.90;1.60;;;;;;;25.84;24.50;100971.11;107790;1256;70791;-67
2023/06/04 04:48:46;;;;;;;5.00;1.40;;;;;;;25.72;23.94;100966.52;107838;1256;72016;-67
2023/06/04 04:51:13;;;;;;;3.60;1.60;;;;;;;25.81;24.18;100964.17;107912;1255;60577;-68
2023/06/04 04:53:40;;;;;;;2.70;1.30;;;;;;;25.79;23.91;100967.33;107932;1254;60566;-67
2023/06/04 04:56:08;;;;;;;4.00;1.50;;;;;;;26.18;23.56;100968.61;107853;1254;72613;-67
2023/06/04 04:58:38;;;;;;;2.70;1.50;;;;;;;26.45;23.40;100964.23;107920;1254;69557;-67
2023/06/04 05:01:06;;;;;;;2.30;1.20;;;;;;;26.91;22.90;100963.08;107993;1253;70634;-67
2023/06/04 05:03:34;;;;;;;4.10;1.30;;;;;;;27.19;22.74;100960.85;108023;1254;60438;-67
2023/06/04 05:06:01;;;;;;;3.70;1.40;;;;;;;27.47;22.50;100960.16;108001;1254;59296;-67
2023/06/04 05:08:29;;;;;;;5.50;1.40;;;;;;;27.72;22.25;100960.55;108047;1254;72649;-67
2023/06/04 05:10:56;;;;;;;2.90;1.40;;;;;;;28.27;21.76;100953.20;107995;1254;69409;-68
2023/06/04 05:13:24;;;;;;;2.80;1.00;;;;;;;28.77;21.28;100958.88;108018;1253;73835;-67
2023/06/04 05:15:56;;;;;;;2.80;1.20;;;;;;;28.98;20.71;100957.61;108006;1254;60434;-68
2023/06/04 05:18:28;;;;;;;4.50;1.20;;;;;;;28.89;19.79;100963.45;108050;1254;60292;-68
2023/06/04 05:20:59;;;;;;;2.00;1.00;;;;;;;28.77;19.64;100963.40;108092;1254;73041;-67
2023/06/04 05:26:48;;;;;;;1.90;1.00;;;;;;;28.22;20.57;100964.05;105857;1289;614541;-94
2023/06/04 05:29:18;;;;;;;3.40;1.10;;;;;;;29.75;19.21;100961.50;108461;1267;58984;-93
2023/06/04 05:31:55;;;;;;;2.50;1.20;;;;;;;29.74;18.35;100964.35;108605;1268;59343;-94
2023/06/04 05:34:29;;;;;;;3.50;1.00;;;;;;;29.96;18.22;100962.23;108755;1263;71330;-93
2023/06/04 05:37:03;;;;;;;5.70;1.30;;;;;;;30.12;18.38;100961.00;108775;1270;69036;-90
2023/06/04 05:39:35;;;;;;;4.50;1.10;;;;;;;30.43;17.95;100961.55;108644;1260;247740;-93
2023/06/04 05:42:09;;;;;;;1.90;1.10;;;;;;;30.67;18.08;100960.55;108978;1260;59297;-93
2023/06/04 05:44:43;;;;;;;5.20;1.10;;;;;;;30.95;17.49;100958.98;108900;1260;59015;-94
2023/06/04 05:47:11;;;;;;;3.60;1.80;;;;;;;31.11;17.12;100964.98;108890;1261;71287;-93
2023/06/04 05:49:40;;;;;;;4.40;1.10;;;;;;;31.18;16.94;100962.78;108867;1259;69053;-91
2023/06/04 05:52:09;;;;;;;4.00;1.00;;;;;;;31.80;16.77;100960.91;108739;1260;71130;-95
2023/06/04 05:54:37;;;;;;;5.00;1.00;;;;;;;32.22;16.37;100957.66;108382;1260;59213;-95
2023/06/04 05:57:20;;;;;;;7.40;1.30;;;;;;;32.56;16.00;100957.02;108445;1256;59482;-95
2023/06/04 05:59:52;;;;;;;2.40;1.00;;;;;;;32.66;16.02;100960.93;108897;1255;71200;-96
2023/06/04 06:02:20;;;;;;;3.30;1.40;;;;;;;32.74;15.58;100964.01;108747;1256;68820;-93
2023/06/04 06:04:49;;;;;;;3.20;0.90;;;;;;;32.37;15.26;100958.34;108703;1256;71459;-95
2023/06/04 06:07:21;;;;;;;3.60;1.10;;;;;;;32.10;15.20;100958.91;108741;1255;59414;-95
2023/06/04 06:09:53;;;;;;;1.70;0.70;;;;;;;31.75;14.91;100959.39;108578;1256;58989;-94
2023/06/04 06:12:26;;;;;;;1.30;0.80;;;;;;;31.78;15.23;100961.25;108338;1257;71599;-94
2023/06/04 06:15:02;;;;;;;2.60;0.90;;;;;;;32.07;15.56;100958.84;108457;1256;68976;-94
2023/06/04 06:17:35;;;;;;;3.70;1.10;;;;;;;32.24;15.03;100956.02;108256;1256;72003;-93
2023/06/04 06:20:08;;;;;;;2.60;1.10;;;;;;;32.52;15.08;100959.48;108366;1256;60510;-95
2023/06/04 06:22:37;;;;;;;2.30;0.90;;;;;;;32.72;14.68;100962.09;108326;1258;60587;-96
2023/06/04 06:25:07;;;;;;;1.80;0.90;;;;;;;32.87;14.54;100964.32;108173;1257;71562;-95
2023/06/04 06:27:44;;;;;;;2.50;0.90;;;;;;;32.94;14.82;100960.75;108905;1256;68950;-96
2023/06/04 06:30:22;;;;;;;5.30;1.20;;;;;;;33.55;14.71;100959.92;108976;1256;72793;-96
2023/06/04 06:32:55;;;;;;;2.70;0.80;;;;;;;34.29;14.53;100954.23;108689;1256;60508;-96
2023/06/04 06:35:55;;;;;;;4.90;1.20;;;;;;;34.00;13.85;100956.34;109039;1256;62256;-96
2023/06/04 06:38:35;;;;;;;3.20;0.90;;;;;;;34.11;13.50;100961.41;109060;1256;62975;-95
2023/06/04 06:41:42;;;;;;;1.10;0.70;;;;;;;33.68;13.10;100965.13;108461;1256;68112;-95
2023/06/04 06:44:16;;;;;;;5.90;1.00;;;;;;;33.55;13.53;100967.81;108311;1256;64119;-95
2023/06/04 06:46:45;;;;;;;3.50;0.80;;;;;;;33.25;13.13;100971.41;108657;1256;60282;-94
2023/06/04 06:49:16;;;;;;;1.40;0.90;;;;;;;33.08;13.17;100969.45;108171;1256;61537;-95
2023/06/04 06:51:44;;;;;;;2.60;0.80;;;;;;;33.43;13.33;100973.02;108266;1256;71796;-95
2023/06/04 06:54:16;;;;;;;1.20;0.50;;;;;;;33.93;13.02;100970.65;108366;1256;68732;-93
2023/06/04 06:56:43;;;;;;;2.30;0.70;;;;;;;34.45;13.17;100963.25;108532;1256;72922;-94
2023/06/04 06:59:11;;;;;;;1.90;0.80;;;;;;;34.49;12.81;100957.06;108888;1253;59551;-93
2023/06/04 07:01:42;;;;;;;5.10;1.00;;;;;;;34.88;12.42;100953.27;108717;1253;59525;-93
2023/06/04 07:04:12;;;;;;;3.20;0.80;;;;;;;35.16;12.64;100954.41;108755;1260;63076;-94
2023/06/04 07:06:48;;;;;;;1.70;0.90;;;;;;;35.23;12.55;100957.46;108694;1253;63915;-92
2023/06/04 07:09:18;;;;;;;3.10;0.70;;;;;;;35.17;11.75;100959.91;109020;1253;62667;-93
2023/06/04 07:11:51;;;;;;;1.10;0.80;;;;;;;34.97;12.06;100959.88;108775;1253;59199;-93
2023/06/04 07:14:21;;;;;;;2.00;0.90;;;;;;;34.47;12.32;100960.06;108670;1253;59517;-94
2023/06/04 07:16:50;;;;;;;1.40;0.70;;;;;;;34.24;12.64;100963.16;108987;1253;71808;-94
2023/06/04 07:19:34;;;;;;;2.30;0.80;;;;;;;33.36;12.83;100969.15;109058;1253;68925;-96
2023/06/04 07:22:10;;;;;;;3.00;1.00;;;;;;;33.35;13.08;100968.39;108876;1253;71354;-94
2023/06/04 07:24:56;;;;;;;2.10;0.70;;;;;;;33.56;13.23;100966.13;108548;1253;59470;-94
2023/06/04 07:27:44;;;;;;;1.10;0.60;;;;;;;33.92;13.41;100963.83;108753;1253;59531;-95
2023/06/04 07:30:12;;;;;;;3.60;0.80;;;;;;;34.23;13.00;100967.95;108649;1253;72803;-95
2023/06/04 07:32:47;;;;;;;;;;;;;;;34.27;13.25;100974.05;108565;1253;68727;-95
2023/06/04 07:35:31;;;;;;;1.80;0.80;;;;;;;34.40;12.66;100980.39;108877;1253;62576;-95
2023/06/04 07:38:23;;;;;;;4.20;1.00;;;;;;;34.48;12.42;100974.47;108620;1253;59024;-95
2023/06/04 07:40:55;;;;;;;1.10;0.60;;;;;;;34.54;12.75;100971.09;108520;1253;58246;-95
2023/06/04 07:43:35;;;;;;;3.00;1.00;;;;;;;34.86;13.04;100965.96;108508;1253;64368;-94
2023/06/04 07:46:05;;;;;;;1.60;0.60;;;;;;;35.39;12.42;100970.57;108192;1253;59877;-96
2023/06/04 07:48:32;;;;;;;2.40;0.70;;;;;;;35.67;12.46;100970.97;109491;1253;62780;-94
2023/06/04 07:51:01;;;;;;;5.10;0.90;;;;;;;35.88;12.53;100965.33;108878;1253;59623;-96
2023/06/04 07:53:29;;;;;;;4.10;0.70;;;;;;;36.36;12.53;100963.08;108312;1253;59440;-96
2023/06/04 07:56:06;;;;;;;1.30;0.70;;;;;;;36.73;11.81;100961.97;108539;1253;64439;-95
2023/06/04 07:58:34;;;;;;;2.70;0.80;;;;;;;37.05;11.46;100958.35;109083;1253;60980;-93
2023/06/04 08:01:05;;;;;;;;;;;;;;;37.23;11.59;100960.21;109082;1252;62780;-95
2023/06/04 08:03:37;;;;;;;2.90;0.70;;;;;;;37.32;11.46;100965.19;108392;1254;59494;-93
2023/06/04 08:06:06;;;;;;;1.50;0.80;;;;;;;37.46;11.29;100967.20;108244;1253;59466;-96
2023/06/04 08:08:34;;;;;;;1.40;0.70;;;;;;;37.26;11.27;100966.62;108492;1253;63172;-95
2023/06/04 08:11:06;;;;;;;1.80;0.90;;;;;;;37.02;11.25;100965.27;109208;1253;60474;-95
2023/06/04 08:13:49;;;;;;;1.50;0.80;;;;;;;37.00;11.14;100966.19;108447;1253;64386;-95
2023/06/04 08:16:18;;;;;;;2.80;0.80;;;;;;;35.95;11.16;100964.36;108280;1253;59520;-94
2023/06/04 08:18:56;;;;;;;3.20;0.80;;;;;;;34.96;11.80;100962.77;108384;1253;59628;-94
2023/06/04 08:21:31;;;;;;;4.20;1.10;;;;;;;34.70;12.42;100962.84;108425;1253;64585;-94
2023/06/04 08:24:22;;;;;;;4.10;0.90;;;;;;;34.52;12.26;100962.23;108616;1253;59854;-96
2023/06/04 08:27:22;;;;;;;1.90;0.90;;;;;;;34.01;12.17;100955.75;108627;1253;71392;-95
2023/06/04 08:29:52;;;;;;;1.10;0.60;;;;;;;33.63;12.79;100957.85;108380;1253;59631;-95
2023/06/04 08:32:22;;;;;;;4.00;0.60;;;;;;;32.81;13.09;100960.91;108314;1253;59408;-94
2023/06/04 08:34:50;;;;;;;1.70;0.60;;;;;;;32.32;13.42;100960.70;108378;1253;71833;-95
2023/06/04 08:37:18;;;;;;;2.40;0.80;;;;;;;32.05;13.60;100962.54;108575;1253;68997;-96
2023/06/04 08:39:47;;;;;;;1.50;0.70;;;;;;;31.52;14.05;100966.25;108525;1253;71386;-94
2023/06/04 08:42:31;;;;;;;2.70;1.00;;;;;;;31.42;13.91;100957.86;108911;1253;59668;-92
2023/06/04 08:45:00;;;;;;;6.70;2.40;;;;;;;31.76;14.04;100953.86;108827;1253;59102;-94
2023/06/04 08:47:32;;;;;;;2.10;1.00;;;;;;;32.89;13.53;100950.02;108960;1253;74883;-94
2023/06/04 08:50:06;;;;;;;3.80;1.00;;;;;;;33.25;13.06;100947.73;109054;1253;69031;-94
2023/06/04 08:52:38;;;;;;;3.30;0.70;;;;;;;32.85;13.20;100949.77;108686;1253;71441;-94
2023/06/04 08:55:31;;;;;;;0.80;0.60;;;;;;;32.84;13.27;100950.38;109195;1252;60434;-93
2023/06/04 08:58:03;;;;;;;1.10;0.80;;;;;;;32.84;13.29;100953.54;109262;1253;58907;-94
2023/06/04 09:00:32;;;;;;;1.20;0.70;;;;;;;32.95;13.33;100952.22;109221;1253;73185;-95
2023/06/04 09:03:03;;;;;;;4.00;0.90;;;;;;;32.74;13.26;100955.65;109333;1253;69077;-94
2023/06/04 09:05:47;;;;;;;3.00;1.30;;;;;;;32.66;13.30;100950.42;109379;1252;71853;-93
2023/06/04 09:08:50;;;;;;;1.70;0.80;;;;;;;32.95;13.42;100950.98;109194;1252;60236;-94
2023/06/04 09:11:33;;;;;;;1.50;0.90;;;;;;;33.62;12.75;100949.45;109487;1253;59684;-93
2023/06/04 09:14:04;;;;;;;2.20;0.80;;;;;;;34.23;12.64;100947.08;109580;1252;63063;-94
2023/06/04 09:16:55;;;;;;;3.80;0.80;;;;;;;34.90;12.43;100943.46;109499;1253;60272;-94
2023/06/04 09:19:24;;;;;;;1.70;0.70;;;;;;;35.47;12.09;100942.72;108918;1252;62894;-95
2023/06/04 09:21:59;;;;;;;5.20;0.90;;;;;;;35.61;11.79;100940.20;109139;1253;59078;-93
2023/06/04 09:25:02;;;;;;;2.60;0.80;;;;;;;35.50;11.86;100935.40;109387;1253;56985;-94
2023/06/04 09:27:39;;;;;;;4.20;0.80;;;;;;;35.46;11.96;100932.85;109145;1253;63406;-95
2023/06/04 09:30:19;;;;;;;1.30;0.60;;;;;;;35.04;12.13;100929.50;109385;1253;60324;-94
2023/06/04 09:32:49;;;;;;;2.20;0.80;;;;;;;34.94;12.01;100927.55;109510;1252;62658;-96
2023/06/04 09:35:20;;;;;;;2.50;0.80;;;;;;;35.01;12.05;100921.29;109577;1252;57263;-94
2023/06/04 09:37:55;;;;;;;1.60;0.70;;;;;;;35.25;12.09;100921.34;109580;1252;57140;-94
2023/06/04 09:40:37;;;;;;;1.60;0.70;;;;;;;35.20;11.92;100921.34;109480;1253;63797;-93
2023/06/04 09:43:06;;;;;;;2.40;1.00;;;;;;;34.72;12.20;100917.13;109492;1254;60606;-92
2023/06/04 09:45:38;;;;;;;2.40;0.70;;;;;;;34.80;12.57;100917.08;109537;1253;63061;-93
2023/06/04 09:48:22;;;;;;;3.10;0.90;;;;;;;35.63;12.08;100916.05;109473;1253;59408;-95
2023/06/04 09:51:13;;;;;;;1.00;0.70;;;;;;;36.34;11.56;100910.08;109464;1253;58008;-93
2023/06/04 09:53:40;;;;;;;4.20;0.90;;;;;;;36.74;11.40;100909.42;109271;1253;64357;-93
2023/06/04 09:56:11;;;;;;;0.90;0.80;;;;;;;36.80;11.15;100909.25;109181;1253;59610;-95
2023/06/04 09:58:38;;;;;;;2.80;0.60;;;;;;;36.66;11.34;100901.52;109364;1253;62929;-94
2023/06/04 10:01:07;;;;;;;1.20;0.60;;;;;;;36.76;11.43;100899.21;108477;1253;60424;-96
2023/06/04 10:03:47;;;;;;;1.70;0.80;;;;;;;36.74;11.79;100891.68;108490;1253;60536;-94
2023/06/04 10:06:36;;;;;;;1.50;0.60;;;;;;;37.16;11.18;100886.91;108775;1253;63849;-95
2023/06/04 10:09:10;;;;;;;1.40;0.70;;;;;;;36.86;11.17;100885.98;108509;1253;60640;-94
2023/06/04 10:11:57;;;;;;;4.10;1.10;;;;;;;36.40;11.28;100886.90;108589;1253;64015;-94
2023/06/04 10:14:32;;;;;;;2.60;1.00;;;;;;;35.59;11.62;100888.43;108303;1253;60380;-95
2023/06/04 10:17:03;;;;;;;1.10;0.70;;;;;;;35.25;12.01;100884.27;108642;1253;59320;-94
2023/06/04 10:19:35;;;;;;;1.30;0.70;;;;;;;35.29;12.14;100882.83;108627;1253;63962;-94
2023/06/04 10:22:04;;;;;;;1.70;1.00;;;;;;;35.75;11.83;100880.21;108320;1254;60583;-96
2023/06/04 10:24:32;;;;;;;1.50;1.00;;;;;;;36.11;11.80;100872.36;108543;1252;62559;-95
2023/06/04 10:27:10;;;;;;;3.60;1.20;;;;;;;36.38;11.72;100871.96;108511;1253;60294;-95
2023/06/04 10:29:41;;;;;;;2.80;1.30;;;;;;;36.80;11.70;100865.20;108363;1253;60355;-95
2023/06/04 10:32:10;;;;;;;1.30;0.70;;;;;;;36.81;11.38;100868.60;108539;1253;65171;-96
2023/06/04 10:34:40;;;;;;;1.10;0.80;;;;;;;36.33;11.39;100869.46;108554;1253;59817;-96
2023/06/04 10:37:25;;;;;;;1.50;0.70;;;;;;;36.08;11.54;100868.30;108466;1252;62700;-96
2023/06/04 10:39:54;;;;;;;3.40;0.70;;;;;;;36.07;11.59;100869.73;108751;1253;59044;-94
2023/06/04 10:42:43;;;;;;;1.80;0.80;;;;;;;36.13;11.80;100862.92;108726;1253;59235;-95
2023/06/04 10:45:11;;;;;;;1.80;0.80;;;;;;;36.47;11.57;100861.81;108820;1253;63783;-94
2023/06/04 10:47:50;;;;;;;1.80;0.90;;;;;;;36.64;11.40;100858.84;109059;1253;60107;-95
2023/06/04 10:50:50;;;;;;;2.80;1.20;;;;;;;36.42;11.47;100856.19;109313;1252;62733;-94
2023/06/04 10:53:22;;;;;;;3.30;1.10;;;;;;;36.26;11.59;100858.23;109343;1253;58986;-95
2023/06/04 10:56:32;;;;;;;2.00;1.00;;;;;;;35.86;11.82;100860.55;109479;1253;57882;-91
2023/06/04 10:59:15;;;;;;;2.30;0.90;;;;;;;35.37;12.39;100863.38;109378;1253;64058;-95
2023/06/04 11:01:46;;;;;;;2.20;0.90;;;;;;;35.11;12.32;100862.21;109300;1253;59499;-93
2023/06/04 11:04:33;;;;;;;1.60;0.80;;;;;;;35.12;12.50;100863.27;108714;1260;62685;-94
2023/06/04 11:07:08;;;;;;;2.60;1.30;;;;;;;35.25;12.40;100856.10;108461;1253;60469;-94
2023/06/04 11:09:48;;;;;;;3.30;0.80;;;;;;;35.26;12.23;100850.71;108531;1253;60407;-95
2023/06/04 11:12:17;;;;;;;2.00;1.00;;;;;;;35.23;12.27;100847.04;108847;1253;63910;-95
2023/06/04 11:15:00;;;;;;;3.90;0.80;;;;;;;34.84;12.46;100846.65;109558;1252;60268;-96
2023/06/04 11:17:30;;;;;;;4.20;1.00;;;;;;;34.41;13.44;100841.77;109423;1253;62594;-94
2023/06/04 11:20:06;;;;;;;3.40;3.10;;;;;;;34.51;13.39;100838.65;109467;1253;58648;-94
2023/06/04 11:22:38;;;;;;;1.50;0.80;;;;;;;34.52;13.12;100834.36;109478;1255;58607;-94
2023/06/04 11:25:06;;;;;;;4.00;0.90;;;;;;;34.72;12.98;100829.60;109353;1253;64070;-93
2023/06/04 11:27:40;;;;;;;2.40;1.10;;;;;;;34.94;12.88;100824.38;109330;1253;60113;-94
2023/06/04 11:30:09;;;;;;;1.90;0.70;;;;;;;35.46;12.88;100821.45;109478;1253;62756;-94
2023/06/04 11:32:41;;;;;;;2.50;0.70;;;;;;;36.02;12.49;100820.08;109475;1253;57819;-94
2023/06/04 11:35:16;;;;;;;3.70;1.00;;;;;;;36.20;12.16;100822.91;109392;1253;57606;-94
2023/06/04 11:37:56;;;;;;;2.90;0.80;;;;;;;36.37;12.24;100820.23;109470;1252;63968;-94
2023/06/04 11:40:26;;;;;;;1.00;0.80;;;;;;;36.36;12.25;100821.33;109552;1253;60405;-94
2023/06/04 11:42:53;;;;;;;1.20;0.90;;;;;;;36.11;12.11;100823.42;109590;1252;62778;-95